Time;durP1;ratioP1;P1;durP2;ratioP2;P2;SDS_P1;SDS_P2;PMS_P1;PMS_P2;Temp;Humidity;BMP_temperature;BMP_pressure;BME280_temperature;BME280_humidity;BME280_pressure;Samples;Min_cycle;Max_cycle;Signal;HPM_P1;HPM_P2
2021/09/28 00:00:29;;;;;;;8.43;2.35;;;12.00;99.90;;;;;;4994053;28;20046;-61
2021/09/28 00:02:55;;;;;;;13.80;2.78;;;12.00;99.90;;;;;;4994725;28;20031;-60
2021/09/28 00:05:21;;;;;;;13.13;2.42;;;11.90;99.90;;;;;;4994108;28;20038;-59
2021/09/28 00:07:46;;;;;;;9.00;2.20;;;12.00;99.90;;;;;;4994943;28;20038;-62
2021/09/28 00:10:12;;;;;;;8.35;2.00;;;12.00;99.90;;;;;;4993873;28;20062;-59
2021/09/28 00:12:38;;;;;;;8.40;2.05;;;12.00;99.90;;;;;;4994598;28;20085;-60
2021/09/28 00:15:09;;;;;;;12.32;2.40;;;11.90;99.90;;;;;;4993753;28;20040;-62
2021/09/28 00:17:35;;;;;;;9.43;2.13;;;11.80;99.90;;;;;;4994778;28;20069;-60
2021/09/28 00:20:02;;;;;;;13.90;2.55;;;11.70;99.90;;;;;;4994756;28;20053;-61
2021/09/28 00:22:27;;;;;;;10.07;3.10;;;11.80;99.90;;;;;;4993974;28;20116;-60
2021/09/28 00:24:53;;;;;;;14.15;2.08;;;11.80;99.90;;;;;;4994275;28;20110;-59
2021/09/28 00:27:19;;;;;;;10.20;2.25;;;11.80;99.90;;;;;;4993866;28;20023;-60
2021/09/28 00:29:44;;;;;;;12.13;1.90;;;11.70;99.90;;;;;;4993461;28;20061;-59
2021/09/28 00:32:10;;;;;;;10.23;1.98;;;11.80;99.90;;;;;;4993740;28;20022;-60
2021/09/28 00:34:38;;;;;;;12.25;2.00;;;11.70;99.90;;;;;;4994475;28;20096;-58
2021/09/28 00:37:04;;;;;;;7.65;1.83;;;11.70;99.90;;;;;;4993623;28;20484;-59
2021/09/28 00:39:30;;;;;;;12.68;2.15;;;11.60;99.90;;;;;;4994477;28;20085;-61
2021/09/28 00:41:56;;;;;;;10.23;2.58;;;11.60;99.90;;;;;;4993322;28;20476;-60
2021/09/28 00:44:39;;;;;;;6.43;1.88;;;11.60;99.90;;;;;;4994203;28;20052;-59
2021/09/28 00:47:07;;;;;;;10.82;2.40;;;11.60;99.90;;;;;;4993528;28;20472;-60
2021/09/28 00:49:32;;;;;;;8.35;2.17;;;11.60;99.90;;;;;;4993800;28;20161;-61
2021/09/28 00:51:58;;;;;;;10.40;2.03;;;11.60;99.90;;;;;;5011265;28;20116;-60
2021/09/28 00:54:25;;;;;;;10.15;2.03;;;11.60;99.90;;;;;;5013599;28;20042;-61
2021/09/28 00:56:52;;;;;;;8.40;2.05;;;11.60;99.90;;;;;;5011860;28;20038;-62
2021/09/28 00:59:18;;;;;;;12.38;2.67;;;11.50;99.90;;;;;;5013251;28;20041;-60
2021/09/28 01:01:45;;;;;;;6.97;2.33;;;11.60;99.90;;;;;;5012698;28;20042;-61
2021/09/28 01:04:16;;;;;;;10.23;2.17;;;11.60;99.90;;;;;;5013665;28;20061;-60
2021/09/28 01:06:50;;;;;;;12.75;2.58;;;11.50;99.90;;;;;;5012667;28;20468;-60
2021/09/28 01:09:16;;;;;;;11.60;1.90;;;11.50;99.90;;;;;;5013387;28;20057;-60
2021/09/28 01:11:41;;;;;;;9.48;2.28;;;11.50;99.90;;;;;;5006724;28;20489;-61
2021/09/28 01:14:08;;;;;;;12.73;3.00;;;11.60;99.90;;;;;;5005145;28;20034;-60
2021/09/28 01:16:34;;;;;;;12.70;2.28;;;11.50;99.90;;;;;;5012087;28;20026;-59
2021/09/28 01:19:02;;;;;;;12.40;2.15;;;11.50;99.90;;;;;;5013204;28;20156;-60
2021/09/28 01:21:29;;;;;;;13.50;2.42;;;11.50;99.90;;;;;;5010985;28;20447;-62
2021/09/28 01:23:54;;;;;;;9.32;2.20;;;11.40;99.90;;;;;;5013069;28;20040;-60
2021/09/28 01:26:24;;;;;;;12.13;2.28;;;11.40;99.90;;;;;;5012086;28;20029;-59
2021/09/28 01:28:51;;;;;;;7.28;2.10;;;11.50;99.90;;;;;;5013310;28;20060;-60
2021/09/28 01:31:17;;;;;;;14.43;2.83;;;11.50;99.90;;;;;;5012291;28;20054;-58
2021/09/28 01:33:43;;;;;;;12.40;2.67;;;11.40;99.90;;;;;;5012958;28;20093;-61
2021/09/28 01:36:08;;;;;;;13.05;2.33;;;11.40;99.90;;;;;;5011968;28;20468;-60
2021/09/28 01:38:34;;;;;;;14.18;2.25;;;11.40;99.90;;;;;;5012456;28;20113;-61
2021/09/28 01:41:00;;;;;;;13.45;2.95;;;11.30;99.90;;;;;;5003170;28;20038;-61
2021/09/28 01:43:26;;;;;;;9.95;2.35;;;11.30;99.90;;;;;;4998980;28;20413;-59
2021/09/28 01:46:00;;;;;;;11.00;2.00;;;11.30;99.90;;;;;;4992170;28;20387;-61
2021/09/28 01:48:34;;;;;;;10.52;2.38;;;11.30;99.90;;;;;;4993063;28;20027;-59
2021/09/28 01:51:00;;;;;;;13.52;2.50;;;11.30;99.90;;;;;;4992323;28;20030;-59
2021/09/28 01:53:26;;;;;;;11.00;2.47;;;11.30;99.90;;;;;;4992872;28;20038;-59
2021/09/28 01:55:51;;;;;;;13.63;2.63;;;11.30;99.90;;;;;;4992449;28;20038;-59
2021/09/28 01:58:17;;;;;;;10.02;2.38;;;11.20;99.90;;;;;;4992567;28;20029;-61
2021/09/28 02:00:44;;;;;;;14.18;2.45;;;11.30;99.90;;;;;;4992701;28;20097;-60
2021/09/28 02:03:10;;;;;;;13.63;2.60;;;11.30;99.90;;;;;;4992125;28;20038;-60
2021/09/28 02:05:35;;;;;;;16.60;2.78;;;11.40;99.90;;;;;;4992100;28;20022;-61
2021/09/28 02:08:02;;;;;;;12.15;2.25;;;11.50;99.90;;;;;;4991364;28;20092;-61
2021/09/28 02:10:28;;;;;;;12.40;2.55;;;11.40;99.90;;;;;;4992791;28;20038;-62
2021/09/28 02:12:53;;;;;;;13.40;2.65;;;11.50;99.90;;;;;;4991681;28;20037;-60
2021/09/28 02:15:19;;;;;;;8.10;2.40;;;11.50;99.90;;;;;;4992547;28;20034;-59
2021/09/28 02:17:45;;;;;;;12.27;2.55;;;11.40;99.90;;;;;;4992048;28;20027;-61
2021/09/28 02:20:11;;;;;;;9.30;2.00;;;11.30;99.90;;;;;;4992384;28;20094;-59
2021/09/28 02:22:37;;;;;;;16.63;2.70;;;11.20;99.90;;;;;;4991555;28;20042;-62
2021/09/28 02:25:05;;;;;;;18.27;3.15;;;11.20;99.90;;;;;;4992274;28;20478;-60
2021/09/28 02:27:30;;;;;;;11.10;2.28;;;11.10;99.90;;;;;;4991831;28;20030;-60
2021/09/28 02:29:56;;;;;;;13.95;2.35;;;11.20;99.90;;;;;;4990494;28;20077;-60
2021/09/28 02:32:22;;;;;;;17.80;2.42;;;11.20;99.90;;;;;;4991816;28;20101;-60
2021/09/28 02:34:48;;;;;;;12.93;2.83;;;11.20;99.90;;;;;;4992207;28;20105;-60
2021/09/28 02:37:13;;;;;;;20.73;2.65;;;11.20;99.90;;;;;;4991283;28;20034;-61
2021/09/28 02:39:42;;;;;;;11.65;2.60;;;11.30;99.90;;;;;;4992181;28;20026;-61
2021/09/28 02:42:09;;;;;;;11.20;2.35;;;11.20;99.90;;;;;;4991200;28;20077;-59
2021/09/28 02:44:35;;;;;;;13.30;2.40;;;11.20;99.90;;;;;;4991693;28;20042;-59
2021/09/28 02:47:02;;;;;;;11.45;2.33;;;11.10;99.90;;;;;;4991640;28;20049;-60
2021/09/28 02:49:27;;;;;;;16.02;2.70;;;11.10;99.90;;;;;;4992077;28;20034;-61
2021/09/28 02:51:53;;;;;;;14.15;2.75;;;11.00;99.90;;;;;;4991036;28;20049;-59
2021/09/28 02:54:19;;;;;;;15.18;2.78;;;11.00;99.90;;;;;;4992097;28;20028;-61
2021/09/28 02:56:44;;;;;;;14.48;2.70;;;10.90;99.90;;;;;;4991056;28;20027;-60
2021/09/28 02:59:10;;;;;;;18.73;2.75;;;11.00;99.90;;;;;;4992022;28;20089;-60
2021/09/28 03:01:36;;;;;;;18.27;3.47;;;10.90;99.90;;;;;;4990762;28;20072;-60
2021/09/28 03:04:01;;;;;;;13.98;3.17;;;10.80;99.90;;;;;;4992136;28;20469;-61
2021/09/28 03:06:27;;;;;;;9.32;2.00;;;10.90;99.90;;;;;;4990976;28;20046;-61
2021/09/28 03:08:53;;;;;;;11.80;2.42;;;10.80;99.90;;;;;;4991600;28;20105;-61
2021/09/28 03:11:18;;;;;;;15.23;2.22;;;10.80;99.90;;;;;;4991189;28;20038;-61
2021/09/28 03:13:44;;;;;;;14.10;2.55;;;10.80;99.90;;;;;;4991533;28;20097;-61
2021/09/28 03:16:10;;;;;;;15.30;3.13;;;10.80;99.90;;;;;;4991640;28;20396;-59
2021/09/28 03:18:35;;;;;;;11.98;2.00;;;10.70;99.90;;;;;;4993208;28;20472;-59
2021/09/28 03:21:01;;;;;;;21.08;2.60;;;10.70;99.90;;;;;;5011342;28;20060;-61
2021/09/28 03:23:27;;;;;;;8.95;2.33;;;10.70;99.90;;;;;;5014728;28;20026;-61
2021/09/28 03:25:52;;;;;;;14.43;2.40;;;10.70;99.90;;;;;;5014976;28;20022;-60
2021/09/28 03:28:18;;;;;;;13.82;2.70;;;10.80;99.90;;;;;;5014408;28;20095;-60
2021/09/28 03:30:44;;;;;;;15.40;2.75;;;10.70;99.90;;;;;;5015151;28;20481;-60
2021/09/28 03:33:10;;;;;;;16.45;2.30;;;10.70;99.90;;;;;;5014342;28;20030;-60
2021/09/28 03:35:36;;;;;;;19.70;3.25;;;10.70;99.90;;;;;;5015008;28;20500;-59
2021/09/28 03:38:02;;;;;;;16.58;3.05;;;10.80;99.90;;;;;;5014503;28;20050;-60
2021/09/28 03:40:29;;;;;;;17.40;2.92;;;10.80;99.90;;;;;;5014813;28;20435;-62
2021/09/28 03:42:56;;;;;;;16.67;3.10;;;10.90;99.90;;;;;;5014133;28;20042;-60
2021/09/28 03:45:22;;;;;;;13.25;2.72;;;10.90;99.90;;;;;;5014785;28;20444;-60
2021/09/28 03:47:48;;;;;;;13.40;2.40;;;10.80;99.90;;;;;;5014259;28;20029;-60
2021/09/28 03:50:13;;;;;;;11.90;2.20;;;10.80;99.90;;;;;;5014781;28;20049;-59
2021/09/28 03:52:39;;;;;;;12.07;2.80;;;10.70;99.90;;;;;;5014262;28;20030;-59
2021/09/28 03:55:05;;;;;;;11.45;2.40;;;10.70;99.90;;;;;;5014799;28;20508;-60
2021/09/28 03:57:31;;;;;;;12.45;2.35;;;10.70;99.90;;;;;;5013757;28;20428;-61
2021/09/28 03:59:57;;;;;;;11.70;2.55;;;10.60;99.90;;;;;;5014794;28;20498;-59
2021/09/28 04:02:23;;;;;;;10.82;2.25;;;10.60;99.90;;;;;;5011686;28;20038;-60
2021/09/28 04:04:49;;;;;;;14.25;2.42;;;10.50;99.90;;;;;;5003510;28;20384;-58
2021/09/28 04:07:15;;;;;;;13.85;2.33;;;10.50;99.90;;;;;;5013690;28;20037;-61
2021/09/28 04:09:41;;;;;;;12.98;2.33;;;10.50;99.90;;;;;;5014538;28;20034;-59
2021/09/28 04:12:08;;;;;;;17.77;3.20;;;10.50;99.90;;;;;;5013668;28;20049;-60
2021/09/28 04:14:34;;;;;;;16.80;2.15;;;10.60;99.90;;;;;;5014058;28;20033;-59
2021/09/28 04:17:00;;;;;;;11.85;2.28;;;10.60;99.90;;;;;;5008034;28;20431;-62
2021/09/28 04:19:26;;;;;;;16.13;2.35;;;10.60;99.90;;;;;;5014342;28;20034;-61
2021/09/28 04:21:51;;;;;;;16.48;2.50;;;10.50;99.90;;;;;;5013422;28;20424;-59
2021/09/28 04:24:17;;;;;;;19.08;2.53;;;10.60;99.90;;;;;;5013822;28;20034;-61
2021/09/28 04:26:43;;;;;;;18.67;2.58;;;10.80;99.90;;;;;;5013861;28;20037;-60
2021/09/28 04:29:09;;;;;;;11.48;2.50;;;10.90;99.90;;;;;;5013589;28;20036;-59
2021/09/28 04:31:35;;;;;;;17.23;2.83;;;10.90;99.90;;;;;;5013833;28;20050;-59
2021/09/28 04:34:00;;;;;;;17.75;2.58;;;11.10;99.90;;;;;;5013412;28;20113;-60
2021/09/28 04:36:28;;;;;;;18.23;2.75;;;11.00;99.90;;;;;;5012753;28;20076;-60
2021/09/28 04:38:54;;;;;;;15.80;2.85;;;11.10;99.90;;;;;;5005288;28;20555;-60
2021/09/28 04:41:19;;;;;;;11.80;2.30;;;11.10;99.90;;;;;;5008121;28;20038;-61
2021/09/28 04:43:45;;;;;;;16.58;2.75;;;11.00;99.90;;;;;;5012651;28;20109;-60
2021/09/28 04:46:11;;;;;;;19.90;3.10;;;11.00;99.90;;;;;;5013928;28;20034;-60
2021/09/28 04:48:36;;;;;;;15.13;2.42;;;11.00;99.90;;;;;;5012786;28;20531;-61
2021/09/28 04:51:02;;;;;;;18.63;2.90;;;10.90;99.90;;;;;;5013747;28;20104;-62
2021/09/28 04:53:28;;;;;;;14.18;2.50;;;11.00;99.90;;;;;;5012695;28;20026;-61
2021/09/28 04:55:56;;;;;;;15.13;2.45;;;11.00;99.90;;;;;;5013784;28;20464;-61
2021/09/28 04:58:26;;;;;;;14.23;2.75;;;11.00;99.90;;;;;;5012757;28;20435;-61
2021/09/28 05:00:52;;;;;;;13.02;2.72;;;11.00;99.90;;;;;;5013693;28;20038;-60
2021/09/28 05:03:19;;;;;;;11.65;2.15;;;10.90;99.90;;;;;;5012658;28;20400;-60
2021/09/28 05:05:45;;;;;;;21.35;2.97;;;10.90;99.90;;;;;;5013393;28;20026;-60
2021/09/28 05:08:11;;;;;;;19.00;3.05;;;10.90;99.90;;;;;;5012561;28;20030;-61
2021/09/28 05:10:37;;;;;;;18.70;2.90;;;11.00;99.90;;;;;;5013324;28;20117;-60
2021/09/28 05:13:04;;;;;;;18.83;2.88;;;11.00;99.90;;;;;;5012626;28;20030;-60
2021/09/28 05:15:30;;;;;;;15.52;3.00;;;11.10;99.90;;;;;;5013319;28;20036;-59
2021/09/28 05:17:57;;;;;;;16.48;3.05;;;11.10;99.90;;;;;;5012505;28;20506;-61
2021/09/28 05:20:23;;;;;;;19.65;3.35;;;11.10;99.90;;;;;;5013254;28;20095;-62
2021/09/28 05:22:48;;;;;;;21.08;3.67;;;11.20;99.90;;;;;;5012389;28;20038;-61
2021/09/28 05:25:14;;;;;;;11.80;2.63;;;11.20;99.90;;;;;;5013000;28;20114;-61
2021/09/28 05:27:40;;;;;;;12.90;3.25;;;11.20;99.90;;;;;;5012186;28;20037;-60
2021/09/28 05:30:07;;;;;;;17.25;2.78;;;11.30;99.90;;;;;;5012721;28;20576;-61
2021/09/28 05:32:33;;;;;;;16.17;2.85;;;11.30;99.90;;;;;;5012122;28;20144;-60
2021/09/28 05:34:59;;;;;;;21.27;3.05;;;11.30;99.90;;;;;;5012782;28;20033;-60
2021/09/28 05:37:24;;;;;;;16.73;2.90;;;11.30;99.90;;;;;;5002952;28;20042;-61
2021/09/28 05:39:50;;;;;;;15.02;2.63;;;11.30;99.90;;;;;;4994857;28;20521;-61
2021/09/28 05:42:17;;;;;;;21.30;2.90;;;11.30;99.90;;;;;;5012665;28;20369;-61
2021/09/28 05:44:42;;;;;;;16.17;3.53;;;11.40;99.90;;;;;;5011657;28;20033;-60
2021/09/28 05:47:08;;;;;;;17.80;2.83;;;11.30;99.90;;;;;;5012485;28;20022;-61
2021/09/28 05:49:34;;;;;;;16.00;3.08;;;11.30;99.90;;;;;;5011844;28;20033;-60
2021/09/28 05:52:00;;;;;;;23.67;4.03;;;11.40;99.90;;;;;;5012537;28;20036;-59
2021/09/28 05:54:26;;;;;;;18.60;3.45;;;11.40;99.90;;;;;;5011990;28;20038;-60
2021/09/28 05:56:53;;;;;;;17.05;3.35;;;11.40;99.90;;;;;;5012285;28;20060;-60
2021/09/28 05:59:20;;;;;;;18.30;3.65;;;11.50;99.90;;;;;;5011774;28;20029;-60
2021/09/28 06:01:48;;;;;;;17.80;2.65;;;11.60;99.90;;;;;;5012184;28;20492;-60
2021/09/28 06:04:14;;;;;;;16.27;3.72;;;11.50;99.90;;;;;;5011437;28;20017;-61
2021/09/28 06:06:41;;;;;;;12.38;3.00;;;11.60;99.90;;;;;;5012241;28;20365;-60
2021/09/28 06:09:07;;;;;;;20.70;3.47;;;11.60;99.90;;;;;;5006651;28;20026;-60
2021/09/28 06:11:33;;;;;;;20.55;3.67;;;11.70;99.90;;;;;;5003176;28;20357;-59
2021/09/28 06:13:59;;;;;;;14.63;2.55;;;11.70;99.90;;;;;;5011117;28;20477;-59
2021/09/28 06:16:25;;;;;;;18.45;3.35;;;11.70;99.90;;;;;;5004932;28;20034;-60
2021/09/28 06:18:51;;;;;;;15.60;2.65;;;11.70;99.90;;;;;;4992760;28;20033;-60
2021/09/28 06:21:17;;;;;;;19.33;3.90;;;11.80;99.90;;;;;;5011590;28;20073;-61
2021/09/28 06:23:42;;;;;;;20.55;5.38;;;11.70;99.90;;;;;;5011293;28;20530;-59
2021/09/28 06:26:08;;;;;;;24.52;4.20;;;11.80;99.90;;;;;;4997863;28;20076;-61
2021/09/28 06:28:36;;;;;;;19.30;3.58;;;11.80;99.90;;;;;;5011071;28;20511;-61
2021/09/28 06:31:02;;;;;;;22.05;3.20;;;11.90;99.90;;;;;;5012002;28;20046;-61
2021/09/28 06:33:28;;;;;;;17.60;3.03;;;12.00;99.90;;;;;;5010928;28;20080;-59
2021/09/28 06:35:53;;;;;;;20.65;2.97;;;12.00;99.90;;;;;;5011794;28;20443;-62
2021/09/28 06:38:19;;;;;;;19.40;3.15;;;12.00;99.90;;;;;;5007577;28;20041;-61
2021/09/28 06:40:45;;;;;;;37.20;6.57;;;12.10;99.90;;;;;;5001152;28;20034;-60
2021/09/28 06:43:10;;;;;;;18.95;3.33;;;12.20;99.90;;;;;;5010711;28;20515;-61
2021/09/28 06:45:36;;;;;;;20.27;3.03;;;12.10;99.90;;;;;;5011429;28;20159;-61
2021/09/28 06:48:02;;;;;;;25.00;4.97;;;12.20;99.90;;;;;;5011024;28;20032;-60
2021/09/28 06:50:28;;;;;;;19.52;3.00;;;12.30;99.90;;;;;;5011281;28;20034;-60
2021/09/28 06:52:54;;;;;;;22.38;3.38;;;12.30;99.90;;;;;;5010641;28;20045;-61
2021/09/28 06:55:20;;;;;;;25.30;3.85;;;12.40;99.90;;;;;;5011187;28;20061;-62
2021/09/28 06:57:46;;;;;;;20.95;3.70;;;12.40;99.90;;;;;;5011365;28;20117;-60
2021/09/28 07:00:12;;;;;;;14.73;3.22;;;12.50;99.90;;;;;;5010830;28;20113;-61
2021/09/28 07:02:38;;;;;;;20.05;3.47;;;12.50;99.90;;;;;;5011495;28;20034;-61
2021/09/28 07:05:11;;;;;;;20.15;3.47;;;12.50;99.90;;;;;;5010832;28;20034;-60
2021/09/28 07:07:38;;;;;;;14.48;3.30;;;12.50;99.90;;;;;;5011346;28;20037;-63
2021/09/28 07:10:04;;;;;;;21.90;3.40;;;12.50;99.90;;;;;;5010536;28;20041;-58
2021/09/28 07:12:30;;;;;;;18.15;4.18;;;12.60;99.90;;;;;;5010931;28;20484;-61
2021/09/28 07:14:56;;;;;;;22.17;3.80;;;12.60;99.90;;;;;;5010224;28;20029;-60
2021/09/28 07:17:21;;;;;;;24.17;4.50;;;12.70;99.90;;;;;;5010977;28;20045;-59
2021/09/28 07:19:47;;;;;;;24.25;5.68;;;12.80;99.90;;;;;;5010460;28;20038;-59
2021/09/28 07:22:12;;;;;;;23.25;3.78;;;12.80;99.90;;;;;;5010749;28;20030;-59
2021/09/28 07:24:39;;;;;;;14.63;3.28;;;12.90;99.90;;;;;;5010427;28;20030;-59
2021/09/28 07:27:06;;;;;;;18.73;2.85;;;12.90;99.90;;;;;;5011491;28;20431;-57
2021/09/28 07:29:31;;;;;;;20.13;4.13;;;13.00;99.90;;;;;;5010047;28;20042;-59
2021/09/28 07:31:57;;;;;;;19.98;3.15;;;13.00;99.90;;;;;;5011032;28;20476;-59
2021/09/28 07:34:23;;;;;;;18.52;3.47;;;13.00;99.90;;;;;;5010271;28;20034;-60
2021/09/28 07:36:49;;;;;;;25.67;3.38;;;13.00;99.90;;;;;;5010950;28;20144;-58
2021/09/28 07:39:15;;;;;;;21.15;5.00;;;13.00;99.90;;;;;;5009926;28;20436;-59
2021/09/28 07:41:41;;;;;;;28.08;4.70;;;13.00;99.90;;;;;;5010829;28;20136;-60
2021/09/28 07:44:07;;;;;;;22.00;3.30;;;13.10;99.90;;;;;;5008938;28;20488;-59
2021/09/28 07:46:32;;;;;;;21.52;4.50;;;13.20;99.90;;;;;;5010914;28;20141;-61
2021/09/28 07:48:58;;;;;;;23.15;3.38;;;13.20;99.90;;;;;;5010238;28;20053;-58
2021/09/28 07:51:24;;;;;;;29.80;3.95;;;13.20;99.90;;;;;;5010701;28;20018;-60
2021/09/28 07:53:50;;;;;;;14.80;3.47;;;13.20;99.90;;;;;;5009674;28;20037;-60
2021/09/28 07:56:20;;;;;;;24.15;4.82;;;13.30;99.90;;;;;;5010521;28;20105;-59
2021/09/28 07:58:46;;;;;;;17.45;2.58;;;13.30;99.90;;;;;;5009802;28;20018;-58
2021/09/28 08:01:11;;;;;;;22.92;3.42;;;13.40;99.90;;;;;;5010647;28;20038;-60
2021/09/28 08:03:38;;;;;;;15.52;2.80;;;13.60;99.90;;;;;;5008011;28;20040;-58
2021/09/28 08:06:03;;;;;;;20.25;3.40;;;13.70;99.90;;;;;;4998811;28;20022;-60
2021/09/28 08:08:29;;;;;;;15.70;2.63;;;13.80;99.90;;;;;;5013897;28;20033;-60
2021/09/28 08:10:56;;;;;;;18.83;3.53;;;13.90;99.90;;;;;;5013975;28;20030;-60
2021/09/28 08:13:22;;;;;;;24.17;4.00;;;13.90;99.90;;;;;;5013718;28;20354;-59
2021/09/28 08:15:48;;;;;;;16.67;2.88;;;14.00;99.90;;;;;;5014072;28;20036;-60
2021/09/28 08:18:14;;;;;;;17.20;3.75;;;14.00;99.90;;;;;;5013962;28;20042;-59
2021/09/28 08:20:41;;;;;;;19.65;4.00;;;14.10;99.90;;;;;;5013377;28;20037;-59
2021/09/28 08:23:07;;;;;;;31.83;4.07;;;14.20;99.90;;;;;;5002840;28;20057;-60
2021/09/28 08:25:36;;;;;;;18.98;3.40;;;14.30;99.90;;;;;;5013229;28;20404;-59
2021/09/28 08:30:46;;;;;;;25.23;3.97;;;14.40;99.90;;;;;;5012256;28;20108;-58
2021/09/28 08:33:12;;;;;;;21.48;3.67;;;14.40;99.90;;;;;;5013948;28;20436;-61
2021/09/28 08:35:37;;;;;;;17.30;3.05;;;14.40;99.90;;;;;;5013042;28;20025;-58
2021/09/28 08:38:03;;;;;;;13.30;3.53;;;14.50;99.90;;;;;;5014209;28;20051;-60
2021/09/28 08:40:29;;;;;;;17.20;3.83;;;14.60;99.90;;;;;;5005976;28;20093;-60
2021/09/28 08:42:55;;;;;;;16.80;2.95;;;14.60;99.90;;;;;;5007340;28;20463;-58
2021/09/28 08:45:22;;;;;;;22.40;3.80;;;14.70;99.90;;;;;;4999031;28;20026;-60
2021/09/28 08:47:48;;;;;;;16.45;3.00;;;14.80;99.90;;;;;;5014045;28;20041;-61
2021/09/28 08:50:17;;;;;;;19.58;3.00;;;15.00;99.90;;;;;;5012574;28;20535;-57
2021/09/28 08:52:45;;;;;;;17.83;3.20;;;15.10;99.90;;;;;;5013629;28;20084;-60
2021/09/28 08:55:11;;;;;;;18.80;3.47;;;15.20;99.90;;;;;;5012994;28;20062;-59
2021/09/28 08:57:38;;;;;;;18.75;3.63;;;15.30;99.90;;;;;;5013494;28;20484;-60
2021/09/28 09:00:13;;;;;;;13.02;2.90;;;15.40;99.90;;;;;;5012950;28;20060;-58
2021/09/28 09:02:44;;;;;;;15.55;2.92;;;15.40;99.90;;;;;;5012228;28;20435;-59
2021/09/28 09:05:13;;;;;;;16.92;2.90;;;15.50;99.90;;;;;;4998823;28;20042;-59
2021/09/28 09:07:39;;;;;;;12.05;2.75;;;15.50;99.90;;;;;;5013403;28;20038;-59
2021/09/28 09:10:05;;;;;;;16.33;3.25;;;15.60;99.90;;;;;;5012727;28;20029;-59
2021/09/28 09:12:34;;;;;;;13.13;2.63;;;15.60;99.90;;;;;;5013241;28;20025;-61
2021/09/28 09:15:17;;;;;;;14.07;2.58;;;15.60;99.90;;;;;;5012514;28;20435;-59
2021/09/28 09:17:44;;;;;;;19.52;3.67;;;15.60;99.90;;;;;;5012390;28;20032;-58
2021/09/28 09:20:29;;;;;;;14.77;2.95;;;15.70;99.90;;;;;;5012181;28;20088;-60
2021/09/28 09:22:56;;;;;;;15.88;2.60;;;15.80;99.90;;;;;;4986701;28;20033;-60
2021/09/28 09:25:24;;;;;;;21.60;3.25;;;15.90;99.90;;;;;;5012573;28;20052;-61
2021/09/28 09:27:51;;;;;;;19.60;3.00;;;16.00;99.90;;;;;;5011638;28;20034;-60
2021/09/28 09:30:20;;;;;;;22.60;3.15;;;16.20;99.90;;;;;;5004845;28;20587;-59
2021/09/28 09:32:57;;;;;;;16.55;3.15;;;16.40;99.90;;;;;;5006998;28;20380;-60
2021/09/28 09:35:36;;;;;;;16.00;2.97;;;16.50;99.90;;;;;;4999925;28;20491;-60
2021/09/28 09:38:13;;;;;;;14.65;3.10;;;16.80;99.90;;;;;;5012706;28;20030;-61
2021/09/28 09:40:43;;;;;;;19.90;3.20;;;17.00;99.90;;;;;;5011976;28;20037;-61
2021/09/28 09:43:16;;;;;;;17.05;3.35;;;17.20;99.90;;;;;;5012801;28;20049;-60
2021/09/28 09:45:42;;;;;;;16.13;2.60;;;17.10;99.90;;;;;;5011954;28;20037;-59
2021/09/28 09:48:24;;;;;;;22.45;3.55;;;17.30;99.90;;;;;;5012641;28;20084;-59
2021/09/28 09:51:12;;;;;;;18.35;3.28;;;17.40;99.90;;;;;;5011803;28;20161;-60
2021/09/28 09:53:50;;;;;;;20.10;3.83;;;17.60;99.90;;;;;;5012255;28;20034;-60
2021/09/28 09:56:17;;;;;;;18.17;2.97;;;17.70;99.90;;;;;;5011838;28;20038;-60
2021/09/28 09:58:43;;;;;;;13.98;2.30;;;17.60;99.90;;;;;;5012403;28;20493;-61
2021/09/28 10:01:09;;;;;;;14.60;2.90;;;17.70;99.90;;;;;;5011645;28;20120;-60
2021/09/28 10:03:38;;;;;;;18.55;3.40;;;17.80;99.90;;;;;;5012126;28;20073;-60
2021/09/28 10:06:05;;;;;;;15.95;3.50;;;18.00;99.90;;;;;;5003998;28;20034;-59
2021/09/28 10:08:32;;;;;;;14.07;2.78;;;18.00;99.90;;;;;;4992993;28;20366;-58
2021/09/28 10:10:58;;;;;;;16.70;3.30;;;18.10;99.90;;;;;;4998216;28;20475;-59
2021/09/28 10:13:47;;;;;;;13.10;2.80;;;18.10;99.90;;;;;;5012462;28;20037;-60
2021/09/28 10:16:28;;;;;;;20.35;4.00;;;18.10;99.90;;;;;;4998951;28;20095;-62
2021/09/28 10:18:53;;;;;;;19.23;2.97;;;18.20;99.90;;;;;;5011715;28;20038;-59
2021/09/28 10:21:43;;;;;;;11.98;2.83;;;18.10;99.90;;;;;;5011219;28;20022;-58
2021/09/28 10:24:18;;;;;;;20.35;3.38;;;18.10;99.90;;;;;;5001180;28;20062;-59
2021/09/28 10:27:07;;;;;;;13.60;3.22;;;18.00;99.90;;;;;;5008012;28;20092;-59
2021/09/28 10:29:44;;;;;;;18.85;3.40;;;18.10;99.90;;;;;;5009192;28;20029;-62
2021/09/28 10:32:22;;;;;;;14.73;3.03;;;18.20;99.90;;;;;;5012273;28;20050;-59
2021/09/28 10:35:14;;;;;;;16.77;3.35;;;18.30;99.90;;;;;;5011052;28;20084;-61
2021/09/28 10:37:43;;;;;;;14.02;3.13;;;18.30;99.90;;;;;;5011925;28;20037;-61
2021/09/28 10:40:14;;;;;;;14.10;2.85;;;18.20;99.90;;;;;;5006516;28;20041;-60
2021/09/28 10:43:00;;;;;;;18.35;3.25;;;17.80;99.90;;;;;;5003171;28;20030;-58
2021/09/28 10:45:29;;;;;;;15.90;3.13;;;17.70;99.90;;;;;;5010787;28;20033;-60
2021/09/28 10:47:58;;;;;;;17.60;2.78;;;17.80;99.90;;;;;;5011616;28;20095;-59
2021/09/28 10:50:32;;;;;;;13.48;3.03;;;17.90;99.90;;;;;;4996874;28;20045;-58
2021/09/28 10:53:20;;;;;;;18.30;3.00;;;17.90;99.90;;;;;;5011782;28;20634;-60
2021/09/28 10:56:00;;;;;;;11.93;3.15;;;18.00;99.90;;;;;;5010504;28;20631;-60
2021/09/28 10:58:28;;;;;;;16.38;3.05;;;18.10;99.90;;;;;;5011460;28;20026;-59
2021/09/28 11:00:56;;;;;;;11.32;2.63;;;18.10;99.90;;;;;;5010600;28;20135;-60
2021/09/28 11:03:44;;;;;;;10.55;2.10;;;18.10;99.90;;;;;;5011458;28;20388;-60
2021/09/28 11:06:11;;;;;;;16.90;2.90;;;18.10;99.90;;;;;;4988288;28;20073;-61
2021/09/28 11:08:38;;;;;;;17.23;2.95;;;18.10;99.90;;;;;;5010552;28;20030;-59
2021/09/28 11:11:08;;;;;;;10.75;2.55;;;18.30;99.90;;;;;;4997828;28;20026;-59
2021/09/28 11:13:37;;;;;;;13.32;2.92;;;18.60;99.90;;;;;;5011390;28;20543;-58
2021/09/28 11:16:05;;;;;;;15.65;2.80;;;18.80;99.90;;;;;;5010106;28;20396;-61
2021/09/28 11:18:32;;;;;;;17.55;2.95;;;19.00;99.90;;;;;;5011482;28;20488;-59
2021/09/28 11:21:12;;;;;;;7.30;2.00;;;19.10;99.90;;;;;;5009959;28;20084;-59
2021/09/28 11:23:40;;;;;;;9.95;2.60;;;19.10;99.90;;;;;;5011202;28;20555;-60
2021/09/28 11:26:06;;;;;;;9.70;2.50;;;19.00;99.90;;;;;;5010194;28;20499;-59
2021/09/28 11:28:32;;;;;;;13.10;2.67;;;18.90;99.90;;;;;;5010051;28;20029;-60
2021/09/28 11:31:05;;;;;;;11.43;2.85;;;18.70;99.90;;;;;;5010159;28;20112;-60
2021/09/28 11:33:39;;;;;;;17.10;2.80;;;18.80;99.90;;;;;;4997119;28;20038;-58
2021/09/28 11:36:07;;;;;;;15.38;2.80;;;18.70;99.90;;;;;;4997614;28;20552;-60
2021/09/28 11:38:35;;;;;;;11.60;2.88;;;18.80;99.90;;;;;;5010461;28;20109;-60
2021/09/28 11:41:05;;;;;;;19.55;3.08;;;18.70;99.90;;;;;;4998905;28;20045;-59
2021/09/28 11:43:33;;;;;;;11.52;3.00;;;18.70;99.90;;;;;;5013101;28;20125;-58
2021/09/28 11:46:12;;;;;;;14.57;2.92;;;18.60;99.90;;;;;;5013981;28;20034;-61
2021/09/28 11:48:39;;;;;;;17.90;3.58;;;18.50;99.90;;;;;;5014621;28;20488;-61
2021/09/28 11:51:13;;;;;;;15.73;3.50;;;18.40;99.90;;;;;;5014408;28;20061;-60
2021/09/28 11:53:43;;;;;;;22.27;4.23;;;18.40;99.90;;;;;;5014674;28;20108;-61
2021/09/28 11:56:09;;;;;;;20.13;3.22;;;18.50;99.90;;;;;;5014060;28;20301;-61
2021/09/28 11:58:37;;;;;;;19.23;2.88;;;18.40;99.90;;;;;;5014445;28;20041;-60
2021/09/28 12:01:09;;;;;;;10.27;2.75;;;18.40;99.90;;;;;;5013880;28;20037;-60
2021/09/28 12:03:41;;;;;;;10.18;2.65;;;18.60;99.90;;;;;;5013348;28;20038;-59
2021/09/28 12:06:18;;;;;;;20.45;3.60;;;18.70;99.90;;;;;;5013955;28;20101;-60
2021/09/28 12:08:46;;;;;;;13.45;2.70;;;18.70;99.90;;;;;;5014564;28;20448;-62
2021/09/28 12:11:13;;;;;;;12.93;2.50;;;18.60;99.90;;;;;;5013754;28;20484;-61
2021/09/28 12:13:46;;;;;;;17.05;3.50;;;18.70;99.90;;;;;;5014421;28;20106;-58
2021/09/28 12:16:15;;;;;;;9.70;2.53;;;18.70;99.90;;;;;;5014106;28;20068;-59
2021/09/28 12:18:42;;;;;;;14.88;3.00;;;18.60;99.90;;;;;;5014867;28;20117;-62
2021/09/28 12:21:20;;;;;;;14.13;3.60;;;18.70;99.90;;;;;;5013386;28;20033;-61
2021/09/28 12:24:07;;;;;;;9.07;2.10;;;18.80;99.90;;;;;;5006585;28;20038;-60
2021/09/28 12:26:35;;;;;;;8.52;1.95;;;18.90;99.90;;;;;;4990634;28;20053;-59
2021/09/28 12:29:12;;;;;;;6.60;2.30;;;18.80;99.90;;;;;;5014645;28;20049;-58
2021/09/28 12:31:38;;;;;;;9.80;2.70;;;18.90;99.90;;;;;;5013187;28;20046;-59
2021/09/28 12:34:05;;;;;;;13.48;2.92;;;19.00;99.90;;;;;;5014209;28;20037;-59
2021/09/28 12:36:31;;;;;;;9.70;2.42;;;18.90;99.90;;;;;;5013025;28;20032;-60
2021/09/28 12:39:26;;;;;;;12.57;2.35;;;19.00;99.90;;;;;;5013859;28;20034;-58
2021/09/28 12:41:59;;;;;;;15.30;2.78;;;19.00;99.90;;;;;;5012984;28;20029;-61
2021/09/28 12:44:26;;;;;;;17.15;2.90;;;19.00;99.90;;;;;;5014007;28;20030;-61